CST,Max TemperatureF,Mean TemperatureF,Min TemperatureF,Max Dew PointF,MeanDew PointF,Min DewpointF,Max Humidity, Mean Humidity, Min Humidity, Max Sea Level PressureIn, Mean Sea Level PressureIn, Min Sea Level PressureIn, Max VisibilityMiles, Mean VisibilityMiles, Min VisibilityMiles, Max Wind SpeedMPH, Mean Wind SpeedMPH, Max Gust SpeedMPH,PrecipitationIn, CloudCover, Events, WindDirDegrees
2012-12-1,82,76,70,71,70,68,94,83,64,30.13,30.08,30.04,10,10,7,20,10,30,0.00,2,,154
2012-12-2,82,74,66,71,68,65,95,84,61,30.15,30.09,30.06,10,9,1,16,9,23,0.00,0,,145
2012-12-3,82,74,65,72,67,64,96,83,57,30.07,30.02,29.97,10,7,0,18,8,26,0.00,1,Fog,155
2012-12-4,84,76,68,72,69,66,95,84,59,30.15,30.07,30.02,10,9,3,14,7,21,0.18,3,Rain-Thunderstorm,154
2012-12-5,76,66,57,65,56,48,94,73,42,30.21,30.12,30.04,10,10,3,12,7,,0.00,1,,26
2012-12-6,75,62,49,66,58,49,97,89,55,30.03,29.94,29.87,10,4,0,10,3,,0.00,3,Fog-Rain,89
2012-12-7,81,73,65,72,68,64,96,85,61,29.88,29.83,29.77,10,9,0,18,8,25,0.01,0,Fog,155
2012-12-8,81,75,69,71,69,68,95,84,65,29.89,29.84,29.80,10,10,7,21,9,28,0.00,2,,154
2012-12-9,81,76,71,73,71,69,93,87,70,29.91,29.83,29.77,10,9,4,17,10,23,0.00,3,,163
2012-12-10,74,62,49,72,36,20,92,50,25,30.12,30.01,29.80,10,10,7,26,14,39,0.00,4,,360
2012-12-11,53,48,42,33,28,24,64,45,32,30.23,30.14,30.09,10,10,10,14,9,,0.00,4,,37
2012-12-12,63,49,35,43,33,17,87,57,18,30.33,30.26,30.22,10,10,10,12,6,,0.00,0,,32
2012-12-13,69,57,45,61,52,44,94,76,49,30.29,30.22,30.15,10,10,10,18,8,23,0.00,4,,69
2012-12-14,77,72,68,68,65,61,86,78,67,30.14,30.02,29.91,10,10,10,21,12,30,0.00,6,Rain,146
2012-12-15,79,75,71,72,71,68,93,88,77,29.96,29.87,29.84,10,7,4,21,12,30,0.00,6,,162
2012-12-16,81,74,66,73,69,57,93,84,71,29.87,29.80,29.72,10,7,3,15,9,20,0.00,5,Rain,178
2012-12-17,80,68,55,56,44,28,92,51,15,29.99,29.92,29.84,10,10,10,15,7,21,0.00,0,,311
2012-12-18,79,64,49,70,61,48,96,82,55,29.96,29.89,29.82,10,8,0,23,9,31,0.00,1,Fog,174
2012-12-19,79,75,71,71,70,69,93,87,75,29.84,29.77,29.69,10,8,5,23,15,32,0.00,5,,165
2012-12-20,73,56,38,71,21,2,93,29,10,30.49,30.26,29.79,10,9,5,30,17,41,0.00,2,,337
2012-12-21,58,44,30,40,22,9,74,42,16,30.55,30.45,30.36,10,10,10,8,5,,0.00,0,,11
2012-12-22,75,60,45,63,52,35,89,67,46,30.36,30.24,30.11,10,10,7,20,7,23,0.00,4,,131
2012-12-23,78,70,63,66,64,61,93,79,59,30.09,29.99,29.90,10,10,7,18,10,26,0.00,0,,184
2012-12-24,79,70,60,68,65,59,96,84,60,29.96,29.85,29.72,10,8,0,15,7,22,0.00,1,Fog,167
2012-12-25,72,57,41,69,61,25,92,82,43,30.14,29.73,29.61,10,9,5,20,13,28,0.00,4,,182
2012-12-26,53,43,33,36,27,22,71,54,36,30.28,30.18,30.11,10,10,10,17,9,24,0.00,1,,358
2012-12-27,57,52,47,53,47,37,92,79,63,30.11,29.92,29.80,10,10,7,13,8,,0.00,8,,22
2012-12-28,74,61,47,57,46,32,96,67,22,30.18,29.90,29.77,10,7,0,21,9,26,0.00,3,Fog,360
2012-12-29,55,44,34,35,26,20,76,49,25,30.47,30.38,30.20,10,10,10,16,11,23,0.00,0,,14
2012-12-30,66,52,39,61,43,27,87,64,56,30.44,30.31,30.15,10,10,10,16,9,22,0.00,4,,62
2012-12-31,74,69,64,68,65,62,93,87,76,30.14,30.00,29.89,10,9,3,15,10,23,0.00,6,Rain,168